sensor_id;sensor_type;location;lat;lon;timestamp;temperature;humidity
15481;DHT22;7842;50.904;6.670;2024-01-30T00:02:19;8.00;99.90
15481;DHT22;7842;50.904;6.670;2024-01-30T00:04:45;8.00;99.90
15481;DHT22;7842;50.904;6.670;2024-01-30T00:07:10;8.00;99.90
15481;DHT22;7842;50.904;6.670;2024-01-30T00:09:36;8.00;99.90
15481;DHT22;7842;50.904;6.670;2024-01-30T00:12:01;8.00;99.90
15481;DHT22;7842;50.904;6.670;2024-01-30T00:14:27;7.90;99.90
15481;DHT22;7842;50.904;6.670;2024-01-30T00:16:53;7.90;99.90
15481;DHT22;7842;50.904;6.670;2024-01-30T00:19:19;7.90;99.90
15481;DHT22;7842;50.904;6.670;2024-01-30T00:21:44;7.90;99.90
15481;DHT22;7842;50.904;6.670;2024-01-30T00:24:10;7.90;99.90
15481;DHT22;7842;50.904;6.670;2024-01-30T00:26:35;8.00;99.90
15481;DHT22;7842;50.904;6.670;2024-01-30T00:29:01;8.00;99.90
15481;DHT22;7842;50.904;6.670;2024-01-30T00:31:27;7.80;99.90
15481;DHT22;7842;50.904;6.670;2024-01-30T00:33:53;7.90;99.90
15481;DHT22;7842;50.904;6.670;2024-01-30T00:36:18;7.90;99.90
15481;DHT22;7842;50.904;6.670;2024-01-30T00:38:44;7.90;99.90
15481;DHT22;7842;50.904;6.670;2024-01-30T00:41:09;7.90;99.90
15481;DHT22;7842;50.904;6.670;2024-01-30T00:43:36;8.00;99.90
15481;DHT22;7842;50.904;6.670;2024-01-30T00:46:01;8.00;99.90
15481;DHT22;7842;50.904;6.670;2024-01-30T00:48:27;7.90;99.90
15481;DHT22;7842;50.904;6.670;2024-01-30T00:50:52;7.80;99.90
15481;DHT22;7842;50.904;6.670;2024-01-30T00:53:18;7.80;99.90
15481;DHT22;7842;50.904;6.670;2024-01-30T00:55:44;7.90;99.90
15481;DHT22;7842;50.904;6.670;2024-01-30T00:58:09;7.90;99.90
15481;DHT22;7842;50.904;6.670;2024-01-30T01:00:35;8.00;99.90
15481;DHT22;7842;50.904;6.670;2024-01-30T01:03:01;7.90;99.90
15481;DHT22;7842;50.904;6.670;2024-01-30T01:05:27;8.00;99.90
15481;DHT22;7842;50.904;6.670;2024-01-30T01:07:53;7.90;99.90
15481;DHT22;7842;50.904;6.670;2024-01-30T01:10:18;7.90;99.90
15481;DHT22;7842;50.904;6.670;2024-01-30T01:12:45;7.90;99.90
15481;DHT22;7842;50.904;6.670;2024-01-30T01:15:11;7.80;99.90
15481;DHT22;7842;50.904;6.670;2024-01-30T01:17:38;7.90;99.90
15481;DHT22;7842;50.904;6.670;2024-01-30T01:20:04;7.90;99.90
15481;DHT22;7842;50.904;6.670;2024-01-30T01:22:33;7.80;99.90
15481;DHT22;7842;50.904;6.670;2024-01-30T01:25:00;7.90;99.90
15481;DHT22;7842;50.904;6.670;2024-01-30T01:27:26;7.80;99.90
15481;DHT22;7842;50.904;6.670;2024-01-30T01:29:52;7.90;99.90
15481;DHT22;7842;50.904;6.670;2024-01-30T01:32:17;7.90;99.90
15481;DHT22;7842;50.904;6.670;2024-01-30T01:34:43;7.90;99.90
15481;DHT22;7842;50.904;6.670;2024-01-30T01:37:09;8.00;99.90
15481;DHT22;7842;50.904;6.670;2024-01-30T01:39:34;7.90;99.90
15481;DHT22;7842;50.904;6.670;2024-01-30T01:42:00;7.90;99.90
15481;DHT22;7842;50.904;6.670;2024-01-30T01:44:27;8.00;99.90
15481;DHT22;7842;50.904;6.670;2024-01-30T01:46:54;8.00;99.90
15481;DHT22;7842;50.904;6.670;2024-01-30T01:49:20;8.00;99.90
15481;DHT22;7842;50.904;6.670;2024-01-30T01:51:47;8.00;99.90
15481;DHT22;7842;50.904;6.670;2024-01-30T01:54:14;8.10;99.90
15481;DHT22;7842;50.904;6.670;2024-01-30T01:56:40;7.90;99.90
15481;DHT22;7842;50.904;6.670;2024-01-30T01:59:07;8.10;99.90
15481;DHT22;7842;50.904;6.670;2024-01-30T02:01:34;8.00;99.90
15481;DHT22;7842;50.904;6.670;2024-01-30T02:04:00;8.00;99.90
15481;DHT22;7842;50.904;6.670;2024-01-30T02:06:26;7.90;99.90
15481;DHT22;7842;50.904;6.670;2024-01-30T02:08:52;7.90;99.90
15481;DHT22;7842;50.904;6.670;2024-01-30T02:11:18;7.90;99.90
15481;DHT22;7842;50.904;6.670;2024-01-30T02:13:45;8.00;99.90
15481;DHT22;7842;50.904;6.670;2024-01-30T02:16:10;7.90;99.90
15481;DHT22;7842;50.904;6.670;2024-01-30T02:18:36;7.90;99.90
15481;DHT22;7842;50.904;6.670;2024-01-30T02:21:07;7.90;99.90
15481;DHT22;7842;50.904;6.670;2024-01-30T02:23:34;7.80;99.90
15481;DHT22;7842;50.904;6.670;2024-01-30T02:26:00;7.80;99.90
15481;DHT22;7842;50.904;6.670;2024-01-30T02:28:26;7.90;99.90
15481;DHT22;7842;50.904;6.670;2024-01-30T02:30:52;7.80;99.90
15481;DHT22;7842;50.904;6.670;2024-01-30T02:33:18;7.80;99.90
15481;DHT22;7842;50.904;6.670;2024-01-30T02:35:43;7.70;99.90
15481;DHT22;7842;50.904;6.670;2024-01-30T02:38:09;7.70;99.90
15481;DHT22;7842;50.904;6.670;2024-01-30T02:40:35;7.90;99.90
15481;DHT22;7842;50.904;6.670;2024-01-30T02:43:02;7.80;99.90
15481;DHT22;7842;50.904;6.670;2024-01-30T02:45:27;7.90;99.90
15481;DHT22;7842;50.904;6.670;2024-01-30T02:47:53;7.80;99.90
15481;DHT22;7842;50.904;6.670;2024-01-30T02:50:19;7.80;99.90
15481;DHT22;7842;50.904;6.670;2024-01-30T02:52:44;7.80;99.90
15481;DHT22;7842;50.904;6.670;2024-01-30T02:55:10;7.80;99.90
15481;DHT22;7842;50.904;6.670;2024-01-30T02:57:37;7.80;99.90
15481;DHT22;7842;50.904;6.670;2024-01-30T03:00:03;7.90;99.90
15481;DHT22;7842;50.904;6.670;2024-01-30T03:02:31;7.80;99.90
15481;DHT22;7842;50.904;6.670;2024-01-30T03:04:57;7.70;99.90
15481;DHT22;7842;50.904;6.670;2024-01-30T03:07:23;7.90;99.90
15481;DHT22;7842;50.904;6.670;2024-01-30T03:09:48;7.70;99.90
15481;DHT22;7842;50.904;6.670;2024-01-30T03:12:14;7.70;99.90
15481;DHT22;7842;50.904;6.670;2024-01-30T03:14:39;7.80;99.90
15481;DHT22;7842;50.904;6.670;2024-01-30T03:17:05;7.80;99.90
15481;DHT22;7842;50.904;6.670;2024-01-30T03:19:30;7.80;99.90
15481;DHT22;7842;50.904;6.670;2024-01-30T03:21:56;7.80;99.90
15481;DHT22;7842;50.904;6.670;2024-01-30T03:24:21;7.80;99.90
15481;DHT22;7842;50.904;6.670;2024-01-30T03:26:47;7.70;99.90
15481;DHT22;7842;50.904;6.670;2024-01-30T03:29:13;7.70;99.90
15481;DHT22;7842;50.904;6.670;2024-01-30T03:31:39;7.70;99.90
15481;DHT22;7842;50.904;6.670;2024-01-30T03:34:05;7.70;99.90
15481;DHT22;7842;50.904;6.670;2024-01-30T03:36:30;7.70;99.90
15481;DHT22;7842;50.904;6.670;2024-01-30T03:38:58;7.70;99.90
15481;DHT22;7842;50.904;6.670;2024-01-30T03:41:24;7.80;99.90
15481;DHT22;7842;50.904;6.670;2024-01-30T03:43:50;7.70;99.90
15481;DHT22;7842;50.904;6.670;2024-01-30T03:46:16;7.60;99.90
15481;DHT22;7842;50.904;6.670;2024-01-30T03:48:42;7.80;99.90
15481;DHT22;7842;50.904;6.670;2024-01-30T03:51:07;7.60;99.90
15481;DHT22;7842;50.904;6.670;2024-01-30T03:53:34;7.60;99.90
15481;DHT22;7842;50.904;6.670;2024-01-30T03:55:59;7.80;99.90
15481;DHT22;7842;50.904;6.670;2024-01-30T03:58:25;7.50;99.90
15481;DHT22;7842;50.904;6.670;2024-01-30T04:00:51;7.70;99.90
15481;DHT22;7842;50.904;6.670;2024-01-30T04:03:17;7.60;99.90
15481;DHT22;7842;50.904;6.670;2024-01-30T04:05:43;7.70;99.90
15481;DHT22;7842;50.904;6.670;2024-01-30T04:08:09;7.60;99.90
15481;DHT22;7842;50.904;6.670;2024-01-30T04:10:34;7.60;99.90
15481;DHT22;7842;50.904;6.670;2024-01-30T04:13:00;7.70;99.90
15481;DHT22;7842;50.904;6.670;2024-01-30T04:15:26;7.70;99.90
15481;DHT22;7842;50.904;6.670;2024-01-30T04:17:52;7.70;99.90
15481;DHT22;7842;50.904;6.670;2024-01-30T04:20:17;7.60;99.90
15481;DHT22;7842;50.904;6.670;2024-01-30T04:22:44;7.60;99.90
15481;DHT22;7842;50.904;6.670;2024-01-30T04:25:10;7.60;99.90
15481;DHT22;7842;50.904;6.670;2024-01-30T04:27:36;7.70;99.90
15481;DHT22;7842;50.904;6.670;2024-01-30T04:30:01;7.70;99.90
15481;DHT22;7842;50.904;6.670;2024-01-30T04:32:28;7.70;99.90
15481;DHT22;7842;50.904;6.670;2024-01-30T04:34:54;7.70;99.90
15481;DHT22;7842;50.904;6.670;2024-01-30T04:37:19;7.70;99.90
15481;DHT22;7842;50.904;6.670;2024-01-30T04:39:45;7.70;99.90
15481;DHT22;7842;50.904;6.670;2024-01-30T04:42:11;7.70;99.90
15481;DHT22;7842;50.904;6.670;2024-01-30T04:44:36;7.70;99.90
15481;DHT22;7842;50.904;6.670;2024-01-30T04:47:02;7.70;99.90
15481;DHT22;7842;50.904;6.670;2024-01-30T04:49:28;7.70;99.90
15481;DHT22;7842;50.904;6.670;2024-01-30T04:51:54;7.70;99.90
15481;DHT22;7842;50.904;6.670;2024-01-30T04:54:20;7.70;99.90
15481;DHT22;7842;50.904;6.670;2024-01-30T04:56:45;7.70;99.90
15481;DHT22;7842;50.904;6.670;2024-01-30T04:59:11;7.70;99.90
15481;DHT22;7842;50.904;6.670;2024-01-30T05:01:37;7.70;99.90
15481;DHT22;7842;50.904;6.670;2024-01-30T05:04:03;7.60;99.90
15481;DHT22;7842;50.904;6.670;2024-01-30T05:06:29;7.60;99.90
15481;DHT22;7842;50.904;6.670;2024-01-30T05:08:55;7.70;99.90
15481;DHT22;7842;50.904;6.670;2024-01-30T05:11:20;7.70;99.90
15481;DHT22;7842;50.904;6.670;2024-01-30T05:13:46;7.60;99.90
15481;DHT22;7842;50.904;6.670;2024-01-30T05:16:12;7.60;99.90
15481;DHT22;7842;50.904;6.670;2024-01-30T05:18:38;7.60;99.90
15481;DHT22;7842;50.904;6.670;2024-01-30T05:21:04;7.60;99.90
15481;DHT22;7842;50.904;6.670;2024-01-30T05:23:30;7.50;99.90
15481;DHT22;7842;50.904;6.670;2024-01-30T05:25:56;7.60;99.90
15481;DHT22;7842;50.904;6.670;2024-01-30T05:28:22;7.80;99.90
15481;DHT22;7842;50.904;6.670;2024-01-30T05:30:47;7.70;99.90
15481;DHT22;7842;50.904;6.670;2024-01-30T05:33:13;7.80;99.90
15481;DHT22;7842;50.904;6.670;2024-01-30T05:35:38;7.90;99.90
15481;DHT22;7842;50.904;6.670;2024-01-30T05:38:04;7.90;99.90
15481;DHT22;7842;50.904;6.670;2024-01-30T05:40:33;8.00;99.90
15481;DHT22;7842;50.904;6.670;2024-01-30T05:42:58;8.00;99.90
15481;DHT22;7842;50.904;6.670;2024-01-30T05:45:26;8.10;99.90
15481;DHT22;7842;50.904;6.670;2024-01-30T05:47:52;8.00;99.90
15481;DHT22;7842;50.904;6.670;2024-01-30T05:50:18;8.20;99.90
15481;DHT22;7842;50.904;6.670;2024-01-30T05:52:44;8.00;99.90
15481;DHT22;7842;50.904;6.670;2024-01-30T05:55:10;8.00;99.90
15481;DHT22;7842;50.904;6.670;2024-01-30T05:57:37;8.00;99.90
15481;DHT22;7842;50.904;6.670;2024-01-30T06:00:04;8.00;99.90
15481;DHT22;7842;50.904;6.670;2024-01-30T06:02:30;8.00;99.90
15481;DHT22;7842;50.904;6.670;2024-01-30T06:04:55;8.00;99.90
15481;DHT22;7842;50.904;6.670;2024-01-30T06:07:21;7.90;99.90
15481;DHT22;7842;50.904;6.670;2024-01-30T06:09:47;7.90;99.90
15481;DHT22;7842;50.904;6.670;2024-01-30T06:12:13;7.90;99.90
15481;DHT22;7842;50.904;6.670;2024-01-30T06:14:38;7.90;99.90
15481;DHT22;7842;50.904;6.670;2024-01-30T06:17:04;7.90;99.90
15481;DHT22;7842;50.904;6.670;2024-01-30T06:19:30;7.90;99.90
15481;DHT22;7842;50.904;6.670;2024-01-30T06:21:59;8.00;99.90
15481;DHT22;7842;50.904;6.670;2024-01-30T06:24:24;8.00;99.90
15481;DHT22;7842;50.904;6.670;2024-01-30T06:26:50;8.10;99.90
15481;DHT22;7842;50.904;6.670;2024-01-30T06:29:16;8.00;99.90
15481;DHT22;7842;50.904;6.670;2024-01-30T06:31:42;8.10;99.90
15481;DHT22;7842;50.904;6.670;2024-01-30T06:34:08;8.00;99.90
15481;DHT22;7842;50.904;6.670;2024-01-30T06:36:34;8.10;99.90
15481;DHT22;7842;50.904;6.670;2024-01-30T06:39:01;8.00;99.90
15481;DHT22;7842;50.904;6.670;2024-01-30T06:41:27;8.10;99.90
15481;DHT22;7842;50.904;6.670;2024-01-30T06:43:52;8.00;99.90
15481;DHT22;7842;50.904;6.670;2024-01-30T06:46:18;8.10;99.90
15481;DHT22;7842;50.904;6.670;2024-01-30T06:48:43;8.00;99.90
15481;DHT22;7842;50.904;6.670;2024-01-30T06:51:10;8.10;99.90
15481;DHT22;7842;50.904;6.670;2024-01-30T06:53:36;8.00;99.90
15481;DHT22;7842;50.904;6.670;2024-01-30T06:56:02;8.00;99.90
15481;DHT22;7842;50.904;6.670;2024-01-30T06:58:28;8.10;99.90
15481;DHT22;7842;50.904;6.670;2024-01-30T07:00:54;8.10;99.90
15481;DHT22;7842;50.904;6.670;2024-01-30T07:03:20;8.10;99.90
15481;DHT22;7842;50.904;6.670;2024-01-30T07:05:46;8.10;99.90
15481;DHT22;7842;50.904;6.670;2024-01-30T07:08:11;8.20;99.90
15481;DHT22;7842;50.904;6.670;2024-01-30T07:10:37;8.20;99.90
15481;DHT22;7842;50.904;6.670;2024-01-30T07:13:03;8.20;99.90
15481;DHT22;7842;50.904;6.670;2024-01-30T07:15:30;8.20;99.90
15481;DHT22;7842;50.904;6.670;2024-01-30T07:17:56;8.20;99.90
15481;DHT22;7842;50.904;6.670;2024-01-30T07:20:21;8.20;99.90
15481;DHT22;7842;50.904;6.670;2024-01-30T07:22:47;8.20;99.90
15481;DHT22;7842;50.904;6.670;2024-01-30T07:25:13;8.10;99.90
15481;DHT22;7842;50.904;6.670;2024-01-30T07:27:39;8.20;99.90
15481;DHT22;7842;50.904;6.670;2024-01-30T07:30:05;8.10;99.90
15481;DHT22;7842;50.904;6.670;2024-01-30T07:32:30;8.20;99.90
15481;DHT22;7842;50.904;6.670;2024-01-30T07:34:57;8.20;99.90
15481;DHT22;7842;50.904;6.670;2024-01-30T07:37:22;8.20;99.90
15481;DHT22;7842;50.904;6.670;2024-01-30T07:39:48;8.20;99.90
15481;DHT22;7842;50.904;6.670;2024-01-30T07:42:13;8.20;99.90
15481;DHT22;7842;50.904;6.670;2024-01-30T07:44:39;8.20;99.90
15481;DHT22;7842;50.904;6.670;2024-01-30T07:47:05;8.30;99.90
15481;DHT22;7842;50.904;6.670;2024-01-30T07:49:31;8.30;99.90
15481;DHT22;7842;50.904;6.670;2024-01-30T07:51:57;8.30;99.90
15481;DHT22;7842;50.904;6.670;2024-01-30T07:54:23;8.30;99.90
15481;DHT22;7842;50.904;6.670;2024-01-30T07:56:49;8.30;99.90
15481;DHT22;7842;50.904;6.670;2024-01-30T07:59:15;8.30;99.90
15481;DHT22;7842;50.904;6.670;2024-01-30T08:01:40;8.40;99.90
15481;DHT22;7842;50.904;6.670;2024-01-30T08:04:06;8.50;99.90
15481;DHT22;7842;50.904;6.670;2024-01-30T08:06:33;8.50;99.90
15481;DHT22;7842;50.904;6.670;2024-01-30T08:08:58;8.40;99.90
15481;DHT22;7842;50.904;6.670;2024-01-30T08:11:24;8.40;99.90
15481;DHT22;7842;50.904;6.670;2024-01-30T08:13:52;8.40;99.90
15481;DHT22;7842;50.904;6.670;2024-01-30T08:16:18;8.60;99.90
15481;DHT22;7842;50.904;6.670;2024-01-30T08:18:44;8.50;99.90
15481;DHT22;7842;50.904;6.670;2024-01-30T08:21:09;8.60;99.90
15481;DHT22;7842;50.904;6.670;2024-01-30T08:23:35;8.60;99.90
15481;DHT22;7842;50.904;6.670;2024-01-30T08:26:00;8.70;99.90
15481;DHT22;7842;50.904;6.670;2024-01-30T08:28:26;8.70;99.90
15481;DHT22;7842;50.904;6.670;2024-01-30T08:30:52;8.80;99.90
15481;DHT22;7842;50.904;6.670;2024-01-30T08:33:18;8.80;99.90
15481;DHT22;7842;50.904;6.670;2024-01-30T08:35:43;8.90;99.90
15481;DHT22;7842;50.904;6.670;2024-01-30T08:38:09;9.00;99.90
15481;DHT22;7842;50.904;6.670;2024-01-30T08:40:35;9.00;99.90
15481;DHT22;7842;50.904;6.670;2024-01-30T08:43:00;9.00;99.90
15481;DHT22;7842;50.904;6.670;2024-01-30T08:45:26;9.10;99.90
15481;DHT22;7842;50.904;6.670;2024-01-30T08:47:52;9.20;99.90
15481;DHT22;7842;50.904;6.670;2024-01-30T08:50:17;9.30;99.90
15481;DHT22;7842;50.904;6.670;2024-01-30T08:52:43;9.40;99.90
15481;DHT22;7842;50.904;6.670;2024-01-30T08:55:09;9.50;99.90
15481;DHT22;7842;50.904;6.670;2024-01-30T08:57:34;9.50;99.90
15481;DHT22;7842;50.904;6.670;2024-01-30T09:00:00;9.70;99.90
15481;DHT22;7842;50.904;6.670;2024-01-30T09:02:29;9.60;99.90
15481;DHT22;7842;50.904;6.670;2024-01-30T09:04:55;9.70;99.90
15481;DHT22;7842;50.904;6.670;2024-01-30T09:07:21;9.80;99.90
15481;DHT22;7842;50.904;6.670;2024-01-30T09:09:46;9.90;99.90
15481;DHT22;7842;50.904;6.670;2024-01-30T09:12:13;9.90;99.90
15481;DHT22;7842;50.904;6.670;2024-01-30T09:14:40;9.90;99.90
15481;DHT22;7842;50.904;6.670;2024-01-30T09:17:06;10.10;99.90
15481;DHT22;7842;50.904;6.670;2024-01-30T09:19:32;10.20;99.90
15481;DHT22;7842;50.904;6.670;2024-01-30T09:21:57;10.20;99.90
15481;DHT22;7842;50.904;6.670;2024-01-30T09:24:23;10.40;99.90
15481;DHT22;7842;50.904;6.670;2024-01-30T09:26:48;10.30;99.90
15481;DHT22;7842;50.904;6.670;2024-01-30T09:29:14;10.30;99.90
15481;DHT22;7842;50.904;6.670;2024-01-30T09:31:46;10.40;99.90
15481;DHT22;7842;50.904;6.670;2024-01-30T09:34:12;10.30;99.90
15481;DHT22;7842;50.904;6.670;2024-01-30T09:36:38;10.40;99.90
15481;DHT22;7842;50.904;6.670;2024-01-30T09:39:03;10.50;99.90
15481;DHT22;7842;50.904;6.670;2024-01-30T09:41:32;10.50;99.90
15481;DHT22;7842;50.904;6.670;2024-01-30T09:43:59;10.50;99.90
15481;DHT22;7842;50.904;6.670;2024-01-30T09:46:27;10.60;99.90
15481;DHT22;7842;50.904;6.670;2024-01-30T09:48:55;10.70;99.90
15481;DHT22;7842;50.904;6.670;2024-01-30T09:51:21;10.70;99.90
15481;DHT22;7842;50.904;6.670;2024-01-30T09:53:48;10.90;99.90
15481;DHT22;7842;50.904;6.670;2024-01-30T09:56:14;10.90;99.90
15481;DHT22;7842;50.904;6.670;2024-01-30T09:58:40;11.00;99.90
15481;DHT22;7842;50.904;6.670;2024-01-30T10:01:06;11.00;99.90
15481;DHT22;7842;50.904;6.670;2024-01-30T10:03:31;11.00;99.90
15481;DHT22;7842;50.904;6.670;2024-01-30T10:05:57;10.80;99.90
15481;DHT22;7842;50.904;6.670;2024-01-30T10:08:23;10.90;99.90
15481;DHT22;7842;50.904;6.670;2024-01-30T10:10:49;10.80;99.90
15481;DHT22;7842;50.904;6.670;2024-01-30T10:13:16;10.90;99.90
15481;DHT22;7842;50.904;6.670;2024-01-30T10:15:41;10.80;99.90
15481;DHT22;7842;50.904;6.670;2024-01-30T10:18:08;10.90;99.90
15481;DHT22;7842;50.904;6.670;2024-01-30T10:20:35;10.90;99.90
15481;DHT22;7842;50.904;6.670;2024-01-30T10:23:01;11.00;99.90
15481;DHT22;7842;50.904;6.670;2024-01-30T10:25:27;11.00;99.90
15481;DHT22;7842;50.904;6.670;2024-01-30T10:27:56;11.00;99.90
15481;DHT22;7842;50.904;6.670;2024-01-30T10:30:22;11.00;99.90
15481;DHT22;7842;50.904;6.670;2024-01-30T10:32:48;11.00;99.90
15481;DHT22;7842;50.904;6.670;2024-01-30T10:35:14;11.10;99.90
15481;DHT22;7842;50.904;6.670;2024-01-30T10:37:41;11.30;99.90
15481;DHT22;7842;50.904;6.670;2024-01-30T10:40:09;11.40;99.90
15481;DHT22;7842;50.904;6.670;2024-01-30T10:42:42;11.30;99.90
15481;DHT22;7842;50.904;6.670;2024-01-30T10:45:09;11.40;99.90
15481;DHT22;7842;50.904;6.670;2024-01-30T10:47:40;11.50;99.90
15481;DHT22;7842;50.904;6.670;2024-01-30T10:50:08;11.60;99.90
15481;DHT22;7842;50.904;6.670;2024-01-30T10:52:34;11.70;99.90
15481;DHT22;7842;50.904;6.670;2024-01-30T10:55:00;11.60;99.90
15481;DHT22;7842;50.904;6.670;2024-01-30T10:57:27;11.60;99.90
15481;DHT22;7842;50.904;6.670;2024-01-30T11:00:04;11.60;99.90
15481;DHT22;7842;50.904;6.670;2024-01-30T11:02:43;11.70;99.90
15481;DHT22;7842;50.904;6.670;2024-01-30T11:05:09;11.70;99.90
15481;DHT22;7842;50.904;6.670;2024-01-30T11:07:34;11.70;99.90
15481;DHT22;7842;50.904;6.670;2024-01-30T11:10:01;11.80;99.90
15481;DHT22;7842;50.904;6.670;2024-01-30T11:12:29;12.00;99.90
15481;DHT22;7842;50.904;6.670;2024-01-30T11:15:08;12.30;99.90
15481;DHT22;7842;50.904;6.670;2024-01-30T11:20:16;12.30;99.90
15481;DHT22;7842;50.904;6.670;2024-01-30T11:22:44;12.30;99.90
15481;DHT22;7842;50.904;6.670;2024-01-30T11:25:18;12.30;99.90
15481;DHT22;7842;50.904;6.670;2024-01-30T11:27:45;12.30;99.90
15481;DHT22;7842;50.904;6.670;2024-01-30T11:30:24;12.30;99.90
15481;DHT22;7842;50.904;6.670;2024-01-30T11:33:13;12.50;99.90
15481;DHT22;7842;50.904;6.670;2024-01-30T11:35:42;12.70;99.90
15481;DHT22;7842;50.904;6.670;2024-01-30T11:38:09;12.90;99.90
15481;DHT22;7842;50.904;6.670;2024-01-30T11:40:36;13.00;99.90
15481;DHT22;7842;50.904;6.670;2024-01-30T11:43:03;13.10;99.90
15481;DHT22;7842;50.904;6.670;2024-01-30T11:45:30;13.10;99.90
15481;DHT22;7842;50.904;6.670;2024-01-30T11:47:57;13.00;99.90
15481;DHT22;7842;50.904;6.670;2024-01-30T11:50:24;13.10;99.90
15481;DHT22;7842;50.904;6.670;2024-01-30T11:52:50;13.20;99.90
15481;DHT22;7842;50.904;6.670;2024-01-30T11:55:15;13.00;99.90
15481;DHT22;7842;50.904;6.670;2024-01-30T11:57:42;13.00;99.90
15481;DHT22;7842;50.904;6.670;2024-01-30T12:00:19;13.00;99.90
15481;DHT22;7842;50.904;6.670;2024-01-30T12:02:53;13.00;99.90
15481;DHT22;7842;50.904;6.670;2024-01-30T12:05:28;13.00;99.90
15481;DHT22;7842;50.904;6.670;2024-01-30T12:07:54;12.90;99.90
15481;DHT22;7842;50.904;6.670;2024-01-30T12:10:21;12.90;99.90
15481;DHT22;7842;50.904;6.670;2024-01-30T12:12:49;13.00;99.90
15481;DHT22;7842;50.904;6.670;2024-01-30T12:15:15;13.00;99.90
15481;DHT22;7842;50.904;6.670;2024-01-30T12:17:41;13.00;99.90
15481;DHT22;7842;50.904;6.670;2024-01-30T12:20:09;13.00;99.90
15481;DHT22;7842;50.904;6.670;2024-01-30T12:22:40;13.00;99.90
15481;DHT22;7842;50.904;6.670;2024-01-30T12:25:17;13.10;99.90
15481;DHT22;7842;50.904;6.670;2024-01-30T12:27:44;13.00;99.90
15481;DHT22;7842;50.904;6.670;2024-01-30T12:30:12;13.00;99.90
15481;DHT22;7842;50.904;6.670;2024-01-30T12:32:46;12.90;99.90
15481;DHT22;7842;50.904;6.670;2024-01-30T12:35:14;12.90;99.90
15481;DHT22;7842;50.904;6.670;2024-01-30T12:37:40;12.90;99.90
15481;DHT22;7842;50.904;6.670;2024-01-30T12:40:10;12.90;99.90
15481;DHT22;7842;50.904;6.670;2024-01-30T12:42:38;12.90;99.90
15481;DHT22;7842;50.904;6.670;2024-01-30T12:45:04;12.80;99.90
15481;DHT22;7842;50.904;6.670;2024-01-30T12:47:30;12.80;99.90
15481;DHT22;7842;50.904;6.670;2024-01-30T12:49:56;12.70;99.90
15481;DHT22;7842;50.904;6.670;2024-01-30T12:52:22;12.70;99.90
15481;DHT22;7842;50.904;6.670;2024-01-30T12:54:49;12.60;99.90
15481;DHT22;7842;50.904;6.670;2024-01-30T12:57:15;12.60;99.90
15481;DHT22;7842;50.904;6.670;2024-01-30T12:59:42;12.60;99.90
15481;DHT22;7842;50.904;6.670;2024-01-30T13:02:08;12.60;99.90
15481;DHT22;7842;50.904;6.670;2024-01-30T13:04:34;12.60;99.90
15481;DHT22;7842;50.904;6.670;2024-01-30T13:07:00;12.60;99.90
15481;DHT22;7842;50.904;6.670;2024-01-30T13:09:29;12.70;99.90
15481;DHT22;7842;50.904;6.670;2024-01-30T13:11:55;12.70;99.90
15481;DHT22;7842;50.904;6.670;2024-01-30T13:14:21;12.80;99.90
15481;DHT22;7842;50.904;6.670;2024-01-30T13:16:47;12.90;99.90
15481;DHT22;7842;50.904;6.670;2024-01-30T13:19:13;12.90;99.90
15481;DHT22;7842;50.904;6.670;2024-01-30T13:21:38;13.10;99.90
15481;DHT22;7842;50.904;6.670;2024-01-30T13:24:04;13.10;99.90
15481;DHT22;7842;50.904;6.670;2024-01-30T13:26:32;12.90;99.90
15481;DHT22;7842;50.904;6.670;2024-01-30T13:28:57;13.00;99.90
15481;DHT22;7842;50.904;6.670;2024-01-30T13:31:23;13.00;99.90
15481;DHT22;7842;50.904;6.670;2024-01-30T13:33:48;13.00;99.90
15481;DHT22;7842;50.904;6.670;2024-01-30T13:36:14;13.00;99.90
15481;DHT22;7842;50.904;6.670;2024-01-30T13:38:40;13.10;99.90
15481;DHT22;7842;50.904;6.670;2024-01-30T13:41:06;12.90;99.90
15481;DHT22;7842;50.904;6.670;2024-01-30T13:43:31;12.80;99.90
15481;DHT22;7842;50.904;6.670;2024-01-30T13:45:57;12.80;99.90
15481;DHT22;7842;50.904;6.670;2024-01-30T13:48:23;12.80;99.90
15481;DHT22;7842;50.904;6.670;2024-01-30T13:50:48;12.80;99.90
15481;DHT22;7842;50.904;6.670;2024-01-30T13:53:14;12.80;99.90
15481;DHT22;7842;50.904;6.670;2024-01-30T13:55:40;12.90;99.90
15481;DHT22;7842;50.904;6.670;2024-01-30T13:58:06;12.80;99.90
15481;DHT22;7842;50.904;6.670;2024-01-30T14:00:33;12.90;99.90
15481;DHT22;7842;50.904;6.670;2024-01-30T14:02:59;13.00;99.90
15481;DHT22;7842;50.904;6.670;2024-01-30T14:05:25;12.80;99.90
15481;DHT22;7842;50.904;6.670;2024-01-30T14:07:54;12.90;99.90
15481;DHT22;7842;50.904;6.670;2024-01-30T14:10:20;12.70;99.90
15481;DHT22;7842;50.904;6.670;2024-01-30T14:12:46;12.80;99.90
15481;DHT22;7842;50.904;6.670;2024-01-30T14:15:13;12.70;99.90
15481;DHT22;7842;50.904;6.670;2024-01-30T14:17:40;12.70;99.90
15481;DHT22;7842;50.904;6.670;2024-01-30T14:20:07;12.70;99.90
15481;DHT22;7842;50.904;6.670;2024-01-30T14:22:34;12.70;99.90
15481;DHT22;7842;50.904;6.670;2024-01-30T14:25:00;12.70;99.90
15481;DHT22;7842;50.904;6.670;2024-01-30T14:27:30;12.70;99.90
15481;DHT22;7842;50.904;6.670;2024-01-30T14:29:57;12.70;99.90
15481;DHT22;7842;50.904;6.670;2024-01-30T14:32:23;12.70;99.90
15481;DHT22;7842;50.904;6.670;2024-01-30T14:34:50;12.70;99.90
15481;DHT22;7842;50.904;6.670;2024-01-30T14:37:15;12.70;99.90
15481;DHT22;7842;50.904;6.670;2024-01-30T14:39:42;12.70;99.90
15481;DHT22;7842;50.904;6.670;2024-01-30T14:42:07;12.70;99.90
15481;DHT22;7842;50.904;6.670;2024-01-30T14:44:33;12.70;99.90
15481;DHT22;7842;50.904;6.670;2024-01-30T14:46:59;12.80;99.90
15481;DHT22;7842;50.904;6.670;2024-01-30T14:49:25;12.80;99.90
15481;DHT22;7842;50.904;6.670;2024-01-30T14:51:51;12.80;99.90
15481;DHT22;7842;50.904;6.670;2024-01-30T14:54:17;12.80;99.90
15481;DHT22;7842;50.904;6.670;2024-01-30T14:56:44;12.80;99.90
15481;DHT22;7842;50.904;6.670;2024-01-30T14:59:09;12.80;99.90
15481;DHT22;7842;50.904;6.670;2024-01-30T15:01:35;12.80;99.90
15481;DHT22;7842;50.904;6.670;2024-01-30T15:04:01;12.80;99.90
15481;DHT22;7842;50.904;6.670;2024-01-30T15:06:26;12.80;99.90
15481;DHT22;7842;50.904;6.670;2024-01-30T15:08:53;12.80;99.90
15481;DHT22;7842;50.904;6.670;2024-01-30T15:11:18;12.70;99.90
15481;DHT22;7842;50.904;6.670;2024-01-30T15:13:44;12.70;99.90
15481;DHT22;7842;50.904;6.670;2024-01-30T15:16:10;12.70;99.90
15481;DHT22;7842;50.904;6.670;2024-01-30T15:18:35;12.70;99.90
15481;DHT22;7842;50.904;6.670;2024-01-30T15:21:01;12.70;99.90
15481;DHT22;7842;50.904;6.670;2024-01-30T15:23:27;12.60;99.90
15481;DHT22;7842;50.904;6.670;2024-01-30T15:25:53;12.60;99.90
15481;DHT22;7842;50.904;6.670;2024-01-30T15:28:18;12.70;99.90
15481;DHT22;7842;50.904;6.670;2024-01-30T15:30:44;12.50;99.90
15481;DHT22;7842;50.904;6.670;2024-01-30T15:33:10;12.80;99.90
15481;DHT22;7842;50.904;6.670;2024-01-30T15:35:36;12.60;99.90
15481;DHT22;7842;50.904;6.670;2024-01-30T15:38:06;12.30;99.90
15481;DHT22;7842;50.904;6.670;2024-01-30T15:40:34;12.10;99.90
15481;DHT22;7842;50.904;6.670;2024-01-30T15:43:00;12.00;99.90
15481;DHT22;7842;50.904;6.670;2024-01-30T15:45:26;11.80;99.90
15481;DHT22;7842;50.904;6.670;2024-01-30T15:47:51;11.70;99.90
15481;DHT22;7842;50.904;6.670;2024-01-30T15:50:17;11.80;99.90
15481;DHT22;7842;50.904;6.670;2024-01-30T15:52:43;11.80;99.90